createdAt,value
2019-03-03T00:02:49.274Z,99508.70
2019-03-03T00:05:39.176Z,99505.33
2019-03-03T00:08:28.954Z,99505.72
2019-03-03T00:11:18.732Z,99506.57
2019-03-03T00:14:08.539Z,99500.23
2019-03-03T00:16:38.973Z,99503.61
2019-03-03T00:19:28.711Z,99494.72
2019-03-03T00:22:18.511Z,99484.98
2019-03-03T00:25:08.445Z,99490.51
2019-03-03T00:27:38.865Z,99482.05
2019-03-03T00:30:28.643Z,99490.11
2019-03-03T00:33:18.451Z,99491.81
2019-03-03T00:36:08.530Z,99494.34
2019-03-03T00:38:57.887Z,99493.10
2019-03-03T00:42:06.583Z,99495.63
2019-03-03T00:45:15.264Z,99482.97
2019-03-03T00:48:23.971Z,99480.50
2019-03-03T00:51:32.661Z,99491.06
2019-03-03T00:54:41.317Z,99487.27
2019-03-03T00:57:49.988Z,99478.79
2019-03-03T01:00:58.628Z,99484.31
2019-03-03T01:04:07.318Z,99483.03
2019-03-03T01:07:15.966Z,99482.61
2019-03-03T01:10:05.255Z,99477.94
2019-03-03T01:13:14.331Z,99479.65
2019-03-03T01:16:23.025Z,99472.88
2019-03-03T01:19:31.680Z,99464.33
2019-03-03T01:22:29.158Z,99468.90
2019-03-03T01:25:18.975Z,99458.63
2019-03-03T01:27:49.336Z,99460.68
2019-03-03T01:30:39.086Z,99464.70
2019-03-03T01:33:28.898Z,99463.36
2019-03-03T01:36:18.681Z,99462.47
2019-03-03T01:39:08.634Z,99458.17
2019-03-03T01:41:39.004Z,99458.47
2019-03-03T01:44:28.792Z,99466.18
2019-03-03T01:47:18.607Z,99456.84
2019-03-03T01:50:09.504Z,99461.00
2019-03-03T01:52:59.343Z,99460.94
2019-03-03T01:55:49.127Z,99467.30
2019-03-03T01:58:57.929Z,99469.82
2019-03-03T02:01:47.710Z,99466.87
2019-03-03T02:04:37.579Z,99472.02
2019-03-03T02:07:27.395Z,99465.24
2019-03-03T02:13:19.622Z,99473.75
2019-03-03T02:19:05.818Z,99464.77
2019-03-03T02:21:55.596Z,99463.09
2019-03-03T02:24:45.367Z,99454.55
2019-03-03T02:27:35.164Z,99457.57
2019-03-03T02:30:25.030Z,99448.25
2019-03-03T02:33:14.834Z,99457.63
2019-03-03T02:36:04.636Z,99458.47
2019-03-03T02:38:54.432Z,99455.08
2019-03-03T02:41:44.563Z,99458.47
2019-03-03T02:44:34.340Z,99458.17
2019-03-03T02:47:24.141Z,99454.34
2019-03-03T02:50:14.211Z,99458.63
2019-03-03T02:52:44.805Z,99443.81
2019-03-03T02:55:34.608Z,99434.53
2019-03-03T02:58:24.394Z,99434.98
2019-03-03T03:01:33.084Z,99437.08
2019-03-03T03:04:22.862Z,99433.73
2019-03-03T03:07:31.558Z,99429.86
2019-03-03T03:10:40.235Z,99429.48
2019-03-03T03:13:48.910Z,99425.30
2019-03-03T03:16:57.681Z,99418.98
2019-03-03T03:20:06.386Z,99426.73
2019-03-03T03:23:15.056Z,99430.57
2019-03-03T03:26:23.777Z,99430.09
2019-03-03T03:29:02.922Z,99424.16
2019-03-03T03:31:51.094Z,99420.23
2019-03-03T03:34:35.933Z,99420.16
2019-03-03T03:37:44.585Z,99415.05
2019-03-03T03:40:53.244Z,99423.48
2019-03-03T03:44:02.001Z,99408.55
2019-03-03T03:47:10.651Z,99424.98
2019-03-03T03:50:07.376Z,99419.04
2019-03-03T03:53:05.127Z,99419.54
2019-03-03T03:56:13.801Z,99421.14
2019-03-03T03:59:22.471Z,99422.47
2019-03-03T04:02:31.156Z,99427.87
2019-03-03T04:05:39.813Z,99436.37
2019-03-03T04:08:20.627Z,99440.44
2019-03-03T04:11:10.133Z,99429.36
2019-03-03T04:14:18.822Z,99426.78
2019-03-03T04:17:27.494Z,99428.48
2019-03-03T04:20:36.151Z,99425.81
2019-03-03T04:23:36.500Z,99439.42
2019-03-03T04:26:35.178Z,99437.66
2019-03-03T04:29:43.905Z,99436.39
2019-03-03T04:33:11.584Z,99445.68
2019-03-03T04:36:01.193Z,99444.02
2019-03-03T04:39:09.917Z,99430.89
2019-03-03T04:42:18.638Z,99429.13
2019-03-03T04:45:27.343Z,99424.45
2019-03-03T04:48:26.078Z,99416.06
2019-03-03T04:51:04.698Z,99435.96
2019-03-03T04:54:02.653Z,99425.81
2019-03-03T04:57:00.927Z,99425.81
2019-03-03T05:00:09.622Z,99420.68
2019-03-03T05:03:18.336Z,99416.52
2019-03-03T05:06:27.048Z,99410.17
2019-03-03T05:09:35.801Z,99418.62
2019-03-03T05:12:44.826Z,99420.77
2019-03-03T05:15:53.499Z,99419.50
2019-03-03T05:19:02.177Z,99417.42
2019-03-03T05:21:52.092Z,99430.16
2019-03-03T05:24:41.864Z,99421.11
2019-03-03T05:27:31.654Z,99432.59
2019-03-03T05:30:21.445Z,99423.23
2019-03-03T05:33:11.260Z,99434.32
2019-03-03T05:36:01.025Z,99425.39
2019-03-03T05:38:50.830Z,99433.53
2019-03-03T05:41:40.603Z,99433.10
2019-03-03T05:44:30.403Z,99439.45
2019-03-03T05:47:20.292Z,99470.09
2019-03-03T05:50:10.083Z,99439.48
2019-03-03T05:56:03.662Z,99437.36
2019-03-03T05:58:53.442Z,99441.66
2019-03-03T06:01:43.325Z,99451.05
2019-03-03T06:04:33.300Z,99450.16
2019-03-03T06:07:23.090Z,99461.22
2019-03-03T06:12:51.727Z,99456.48
2019-03-03T06:15:41.485Z,99456.88
2019-03-03T06:18:31.266Z,99458.59
2019-03-03T06:21:01.654Z,99462.50
2019-03-03T06:23:51.444Z,99460.42
2019-03-03T06:26:41.232Z,99447.13
2019-03-03T06:29:31.039Z,99459.09
2019-03-03T06:32:20.830Z,99451.86
2019-03-03T06:35:10.893Z,99459.15
2019-03-03T06:38:00.660Z,99464.64
2019-03-03T06:40:50.480Z,99470.14
2019-03-03T06:43:26.740Z,99490.05
2019-03-03T06:46:16.569Z,99464.96
2019-03-03T06:49:06.350Z,99470.46
2019-03-03T06:51:56.141Z,99460.20
2019-03-03T06:54:45.962Z,99473.75
2019-03-03T06:57:35.872Z,99466.97
2019-03-03T07:03:28.761Z,99463.52
2019-03-03T07:06:18.556Z,99459.66
2019-03-03T07:09:08.718Z,99464.27
2019-03-03T07:11:39.243Z,99476.64
2019-03-03T07:14:29.022Z,99464.61
2019-03-03T07:17:18.778Z,99467.98
2019-03-03T07:20:11.614Z,99467.55
2019-03-03T07:23:01.442Z,99464.08
2019-03-03T07:25:51.256Z,99480.64
2019-03-03T07:28:21.691Z,99466.96
2019-03-03T07:31:11.503Z,99475.30
2019-03-03T07:33:45.362Z,99474.77
2019-03-03T07:36:35.165Z,99461.08
2019-03-03T07:39:25.383Z,99473.46
2019-03-03T07:42:15.200Z,99471.22
2019-03-03T07:45:05.161Z,99478.31
2019-03-03T07:47:55.013Z,99482.99
2019-03-03T07:50:44.785Z,99473.89
2019-03-03T07:53:34.562Z,99473.97
2019-03-03T07:56:24.406Z,99466.58
2019-03-03T07:59:14.250Z,99472.61
2019-03-03T08:02:04.037Z,99472.53
2019-03-03T08:04:34.469Z,99465.53
2019-03-03T08:07:24.208Z,99470.88
2019-03-03T08:10:14.087Z,99471.38
2019-03-03T08:13:09.210Z,99463.41
2019-03-03T08:15:47.518Z,99478.31
2019-03-03T08:18:18.129Z,99473.59
2019-03-03T08:21:08.260Z,99463.87
2019-03-03T08:23:58.071Z,99492.67
2019-03-03T08:26:47.854Z,99463.75
2019-03-03T08:29:18.321Z,99471.56
2019-03-03T08:32:08.132Z,99462.08
2019-03-03T08:34:57.941Z,99466.14
2019-03-03T08:37:47.767Z,99467.79
2019-03-03T08:40:37.560Z,99490.83
2019-03-03T08:43:39.969Z,99468.69
2019-03-03T08:46:30.958Z,99485.13
2019-03-03T08:49:09.558Z,99490.73
2019-03-03T08:52:12.711Z,99481.87
2019-03-03T08:55:21.365Z,99488.06
2019-03-03T08:58:30.038Z,99494.52
2019-03-03T09:01:19.349Z,99491.30
2019-03-03T09:04:15.827Z,99511.68
2019-03-03T09:07:24.505Z,99496.56
2019-03-03T09:10:33.168Z,99496.42
2019-03-03T09:13:41.857Z,99508.92
2019-03-03T09:16:50.577Z,99498.37
2019-03-03T09:19:49.128Z,99494.27
2019-03-03T09:22:57.793Z,99510.20
2019-03-03T09:26:06.494Z,99514.38
2019-03-03T09:29:15.231Z,99501.08
2019-03-03T09:32:23.896Z,99482.64
2019-03-03T09:35:30.799Z,99466.66
2019-03-03T09:38:39.506Z,99472.95
2019-03-03T09:41:47.762Z,99491.91
2019-03-03T09:44:56.522Z,99484.70
2019-03-03T09:48:05.333Z,99489.72
2019-03-03T09:51:14.043Z,99484.25
2019-03-03T09:54:22.704Z,99490.46
2019-03-03T09:57:31.389Z,99489.20
2019-03-03T10:00:40.074Z,99496.17
2019-03-03T10:03:48.783Z,99488.67
2019-03-03T10:06:57.510Z,99489.47
2019-03-03T10:09:48.471Z,99482.45
2019-03-03T10:12:57.221Z,99483.18
2019-03-03T10:16:05.883Z,99478.14
2019-03-03T10:19:14.572Z,99468.31
2019-03-03T10:22:23.247Z,99460.70
2019-03-03T10:25:31.970Z,99472.00
2019-03-03T10:28:40.646Z,99462.81
2019-03-03T10:31:49.413Z,99449.97
2019-03-03T10:34:58.164Z,99446.81
2019-03-03T10:38:06.835Z,99442.58
2019-03-03T10:41:15.533Z,99418.43
2019-03-03T10:44:04.952Z,99432.23
2019-03-03T10:47:13.640Z,99409.72
2019-03-03T10:50:22.403Z,99409.97
2019-03-03T10:53:31.339Z,99401.20
2019-03-03T10:56:40.110Z,99390.17
2019-03-03T10:59:54.947Z,99400.53
2019-03-03T11:02:46.755Z,99408.08
2019-03-03T11:05:53.873Z,99368.58
2019-03-03T11:08:58.393Z,99374.16
2019-03-03T11:11:53.833Z,99399.65
2019-03-03T11:15:02.509Z,99367.22
2019-03-03T11:18:11.217Z,99363.17
2019-03-03T11:21:19.902Z,99363.75
2019-03-03T11:24:28.597Z,99353.30
2019-03-03T11:27:37.355Z,99357.09
2019-03-03T11:30:38.571Z,99353.98
2019-03-03T11:37:06.690Z,99362.16
2019-03-03T11:39:52.569Z,99346.31
2019-03-03T11:43:01.252Z,99342.00
2019-03-03T11:46:09.942Z,99367.64
2019-03-03T11:49:18.691Z,99339.66
2019-03-03T11:52:27.377Z,99325.34
2019-03-03T11:55:36.081Z,99329.52
2019-03-03T11:58:44.772Z,99325.80
2019-03-03T12:01:43.676Z,99319.73
2019-03-03T12:04:33.002Z,99311.39
2019-03-03T12:07:41.770Z,99298.72
2019-03-03T12:10:31.483Z,99299.07
2019-03-03T12:13:40.207Z,99297.17
2019-03-03T12:16:46.357Z,99289.56
2019-03-03T12:19:55.073Z,99274.50
2019-03-03T12:22:55.462Z,99294.31
2019-03-03T12:26:04.191Z,99286.20
2019-03-03T12:29:12.920Z,99296.77
2019-03-03T12:32:21.673Z,99293.76
2019-03-03T12:35:30.381Z,99278.72
2019-03-03T12:38:39.145Z,99277.16
2019-03-03T12:41:39.408Z,99272.59
2019-03-03T12:44:48.130Z,99277.08
2019-03-03T12:47:43.579Z,99280.65
2019-03-03T12:50:52.271Z,99258.72
2019-03-03T12:53:58.292Z,99259.38
2019-03-03T12:57:07.061Z,99264.53
2019-03-03T13:00:15.759Z,99263.13
2019-03-03T13:03:24.480Z,99245.94
2019-03-03T13:06:33.179Z,99239.55
2019-03-03T13:09:41.935Z,99242.94
2019-03-03T13:12:42.418Z,99228.73
2019-03-03T13:15:31.945Z,99225.83
2019-03-03T13:18:40.674Z,99219.96
2019-03-03T13:21:49.348Z,99223.70
2019-03-03T13:28:01.697Z,99216.66
2019-03-03T13:31:10.430Z,99226.41
2019-03-03T13:34:19.118Z,99224.11
2019-03-03T13:37:27.873Z,99249.26
2019-03-03T13:40:22.997Z,99225.05
2019-03-03T13:43:13.329Z,99217.76
2019-03-03T13:46:03.150Z,99222.95
2019-03-03T13:48:53.017Z,99207.48
2019-03-03T13:51:42.854Z,99206.80
2019-03-03T13:54:32.710Z,99197.97
2019-03-03T13:57:22.549Z,99192.15
2019-03-03T14:00:15.081Z,99196.73
2019-03-03T14:05:49.820Z,99194.41
2019-03-03T14:08:39.607Z,99192.55
2019-03-03T14:14:32.785Z,99188.66
2019-03-03T14:17:22.587Z,99180.85
2019-03-03T14:20:14.847Z,99174.08
2019-03-03T14:23:04.692Z,99183.61
2019-03-03T14:25:54.644Z,99175.02
2019-03-03T14:28:44.480Z,99166.29
2019-03-03T14:31:34.346Z,99167.70
2019-03-03T14:34:24.145Z,99162.80
2019-03-03T14:37:14.840Z,99158.53
2019-03-03T14:39:45.258Z,99153.27
2019-03-03T14:42:15.696Z,99157.88
2019-03-03T14:44:46.383Z,99164.72
2019-03-03T14:47:18.482Z,99164.20
2019-03-03T14:50:09.924Z,99150.44
2019-03-03T14:52:40.402Z,99147.80
2019-03-03T14:55:30.301Z,99153.39
2019-03-03T14:58:20.592Z,99152.42
2019-03-03T15:01:10.561Z,99150.23
2019-03-03T15:04:00.488Z,99150.49
2019-03-03T15:06:50.380Z,99153.52
2019-03-03T15:09:22.094Z,99149.77
2019-03-03T15:11:52.639Z,99160.02
2019-03-03T15:14:24.713Z,99142.16
2019-03-03T15:17:14.541Z,99136.02
2019-03-03T15:20:04.336Z,99135.00
2019-03-03T15:22:54.858Z,99135.34
2019-03-03T15:25:25.262Z,99142.29
2019-03-03T15:28:15.439Z,99121.61
2019-03-03T15:31:05.232Z,99122.84
2019-03-03T15:33:55.066Z,99128.85
2019-03-03T15:36:44.879Z,99122.85
2019-03-03T15:39:34.728Z,99118.75
2019-03-03T15:42:05.355Z,99123.34
2019-03-03T15:44:55.191Z,99105.73
2019-03-03T15:47:45.394Z,99097.67
2019-03-03T15:50:35.264Z,99100.23
2019-03-03T15:56:08.932Z,99101.45
2019-03-03T15:58:39.827Z,99093.23
2019-03-03T16:01:29.697Z,99098.83
2019-03-03T16:04:19.509Z,99094.80
2019-03-03T16:07:09.336Z,99094.19
2019-03-03T16:09:39.849Z,99087.37
2019-03-03T16:12:29.659Z,99084.81
2019-03-03T16:15:19.474Z,99087.20
2019-03-03T16:18:09.431Z,99086.73
2019-03-03T16:20:41.516Z,99090.12
2019-03-03T16:23:31.339Z,99082.88
2019-03-03T16:26:21.213Z,99085.02
2019-03-03T16:29:11.379Z,99089.46
2019-03-03T16:32:01.219Z,99085.34
2019-03-03T16:34:50.834Z,99085.70
2019-03-03T16:40:24.612Z,99077.53
2019-03-03T16:43:14.470Z,99076.63
2019-03-03T16:46:04.316Z,99069.81
2019-03-03T16:48:54.154Z,99071.55
2019-03-03T16:51:44.010Z,99065.97
2019-03-03T16:54:33.841Z,99071.00
2019-03-03T16:57:23.692Z,99073.86
2019-03-03T16:59:55.771Z,99080.54
2019-03-03T17:02:45.680Z,99079.20
2019-03-03T17:05:35.541Z,99077.77
2019-03-03T17:08:25.394Z,99072.54
2019-03-03T17:11:15.204Z,99074.38
2019-03-03T17:14:05.057Z,99078.48
2019-03-03T17:16:54.940Z,99083.03
2019-03-03T17:19:44.789Z,99073.45
2019-03-03T17:22:34.581Z,99064.56
2019-03-03T17:25:24.467Z,99066.93
2019-03-03T17:28:14.667Z,99067.60
2019-03-03T17:31:04.551Z,99065.33
2019-03-03T17:33:54.447Z,99055.44
2019-03-03T17:36:24.910Z,99051.84
2019-03-03T17:39:14.728Z,99057.41
2019-03-03T17:42:04.563Z,99051.28
2019-03-03T17:44:35.010Z,99048.13
2019-03-03T17:47:24.989Z,99047.09
2019-03-03T17:50:15.994Z,99057.22
2019-03-03T17:52:47.206Z,99055.74
2019-03-03T17:55:37.554Z,99052.39
2019-03-03T17:58:27.430Z,99047.83
2019-03-03T18:01:17.360Z,99045.92
2019-03-03T18:04:07.311Z,99034.39
2019-03-03T18:06:38.988Z,99030.22
2019-03-03T18:09:22.775Z,99031.01
2019-03-03T18:12:12.738Z,99028.66
2019-03-03T18:15:03.165Z,99028.11
2019-03-03T18:17:53.032Z,99020.52
2019-03-03T18:20:42.945Z,99023.53
2019-03-03T18:23:33.020Z,99020.98
2019-03-03T18:26:22.944Z,99019.41
2019-03-03T18:29:13.329Z,99021.12
2019-03-03T18:35:13.006Z,99006.28
2019-03-03T18:38:02.706Z,99007.90
2019-03-03T18:40:52.561Z,99008.33
2019-03-03T18:46:26.163Z,99003.84
2019-03-03T18:49:16.011Z,99003.98
2019-03-03T18:52:05.909Z,98994.23
2019-03-03T18:54:55.773Z,98993.46
2019-03-03T18:57:26.277Z,98991.34
2019-03-03T19:00:35.953Z,98985.65
2019-03-03T19:03:25.804Z,98980.02
2019-03-03T19:06:15.658Z,98974.11
2019-03-03T19:08:46.194Z,98985.22
2019-03-03T19:11:36.072Z,98976.20
2019-03-03T19:14:28.591Z,98970.88
2019-03-03T19:17:17.763Z,98973.44
2019-03-03T19:20:09.709Z,98966.89
2019-03-03T19:22:40.593Z,98967.62
2019-03-03T19:25:12.216Z,98959.73
2019-03-03T19:28:02.029Z,98955.55
2019-03-03T19:30:51.903Z,98956.37
2019-03-03T19:33:45.745Z,98950.56
2019-03-03T19:36:36.567Z,98941.34
2019-03-03T19:39:28.191Z,98939.55
2019-03-03T19:42:18.006Z,98939.73
2019-03-03T19:45:12.353Z,98946.11
2019-03-03T19:47:43.542Z,98937.90
2019-03-03T19:50:33.364Z,98937.27
2019-03-03T19:53:23.230Z,98934.23
2019-03-03T19:56:13.079Z,98934.18
2019-03-03T19:59:02.968Z,98918.17
2019-03-03T20:01:52.800Z,98920.96
2019-03-03T20:04:42.696Z,98927.55
2019-03-03T20:07:32.508Z,98926.05
2019-03-03T20:10:22.348Z,98923.53
2019-03-03T20:13:12.173Z,98936.72
2019-03-03T20:16:02.000Z,98924.13
2019-03-03T20:21:48.104Z,98913.38
2019-03-03T20:24:19.322Z,98924.77
2019-03-03T20:26:49.797Z,98926.15
2019-03-03T20:29:20.509Z,98919.65
2019-03-03T20:31:51.299Z,98911.66
2019-03-03T20:34:21.772Z,98916.47
2019-03-03T20:36:52.247Z,98915.31
2019-03-03T20:39:22.835Z,98911.73
2019-03-03T20:41:53.489Z,98908.32
2019-03-03T20:44:23.922Z,98906.74
2019-03-03T20:47:13.752Z,98907.19
2019-03-03T20:50:03.770Z,98898.02
2019-03-03T20:52:53.635Z,98901.70
2019-03-03T20:55:43.490Z,98883.77
2019-03-03T20:58:33.398Z,98882.61
2019-03-03T21:01:03.831Z,98877.77
2019-03-03T21:03:53.734Z,98885.11
2019-03-03T21:06:43.608Z,98868.34
2019-03-03T21:09:14.208Z,98865.07
2019-03-03T21:12:03.986Z,98868.09
2019-03-03T21:14:53.813Z,98868.70
2019-03-03T21:17:43.599Z,98861.52
2019-03-03T21:20:33.440Z,98853.74
2019-03-03T21:23:23.240Z,98858.80
2019-03-03T21:26:13.116Z,98853.80
2019-03-03T21:29:02.980Z,98844.74
2019-03-03T21:31:52.844Z,98846.30
2019-03-03T21:34:42.653Z,98843.92
2019-03-03T21:37:32.486Z,98847.93
2019-03-03T21:40:22.348Z,98851.95
2019-03-03T21:42:52.807Z,98842.63
2019-03-03T21:45:23.312Z,98840.67
2019-03-03T21:48:13.103Z,98835.24
2019-03-03T21:51:02.906Z,98834.02
2019-03-03T21:53:52.977Z,98834.59
2019-03-03T21:56:42.806Z,98829.13
2019-03-03T21:59:32.677Z,98821.70
2019-03-03T22:02:03.100Z,98820.98
2019-03-03T22:04:53.023Z,98810.80
2019-03-03T22:07:43.284Z,98807.78
2019-03-03T22:10:33.805Z,98800.56
2019-03-03T22:13:23.689Z,98806.30
2019-03-03T22:16:13.667Z,98810.49
2019-03-03T22:18:44.157Z,98803.80
2019-03-03T22:21:34.090Z,98809.38
2019-03-03T22:24:24.107Z,98808.00
2019-03-03T22:27:14.056Z,98802.11
2019-03-03T22:29:44.521Z,98797.70
2019-03-03T22:32:34.499Z,98793.12
2019-03-03T22:35:05.284Z,98791.91
2019-03-03T22:37:37.366Z,98793.18
2019-03-03T22:40:27.215Z,98790.49
2019-03-03T22:43:17.091Z,98787.78
2019-03-03T22:46:06.933Z,98793.20
2019-03-03T22:48:56.771Z,98788.35
2019-03-03T22:51:46.531Z,98780.99
2019-03-03T22:54:36.396Z,98784.13
2019-03-03T22:57:26.207Z,98776.99
2019-03-03T23:01:02.559Z,98768.43
2019-03-03T23:04:31.270Z,98771.33
2019-03-03T23:07:59.179Z,98761.88
2019-03-03T23:10:56.165Z,98768.20
2019-03-03T23:14:24.098Z,98771.48
2019-03-03T23:17:52.048Z,98767.77
2019-03-03T23:21:13.665Z,98772.55
2019-03-03T23:24:41.630Z,98772.97
2019-03-03T23:27:31.436Z,98757.34
2019-03-03T23:30:21.257Z,98754.97
2019-03-03T23:33:11.130Z,98756.13
2019-03-03T23:36:00.920Z,98749.48
2019-03-03T23:38:50.791Z,98751.25
2019-03-03T23:41:40.563Z,98747.06
2019-03-03T23:44:30.577Z,98757.24
2019-03-03T23:47:20.415Z,98754.21
2019-03-03T23:50:10.438Z,98745.56
2019-03-03T23:52:40.833Z,98732.14
2019-03-03T23:55:30.615Z,98740.15
2019-03-03T23:58:20.405Z,98742.33
